sensor_id;sensor_type;location;lat;lon;timestamp;temperature;humidity
10968;DHT22;5536;49.602;10.980;2022-11-24T00:00:50;5.40;99.90
10968;DHT22;5536;49.602;10.980;2022-11-24T00:03:17;5.40;99.90
10968;DHT22;5536;49.602;10.980;2022-11-24T00:05:44;5.40;99.90
10968;DHT22;5536;49.602;10.980;2022-11-24T00:08:12;5.40;99.90
10968;DHT22;5536;49.602;10.980;2022-11-24T00:10:39;5.40;99.90
10968;DHT22;5536;49.602;10.980;2022-11-24T00:13:07;5.30;99.90
10968;DHT22;5536;49.602;10.980;2022-11-24T00:15:35;5.30;99.90
10968;DHT22;5536;49.602;10.980;2022-11-24T00:18:02;5.40;99.90
10968;DHT22;5536;49.602;10.980;2022-11-24T00:20:29;5.40;99.90
10968;DHT22;5536;49.602;10.980;2022-11-24T00:22:57;5.40;99.90
10968;DHT22;5536;49.602;10.980;2022-11-24T00:25:24;5.40;99.90
10968;DHT22;5536;49.602;10.980;2022-11-24T00:27:51;5.40;99.90
10968;DHT22;5536;49.602;10.980;2022-11-24T00:30:20;5.40;99.90
10968;DHT22;5536;49.602;10.980;2022-11-24T00:32:47;5.40;99.90
10968;DHT22;5536;49.602;10.980;2022-11-24T00:35:15;5.40;99.90
10968;DHT22;5536;49.602;10.980;2022-11-24T00:37:42;5.50;99.90
10968;DHT22;5536;49.602;10.980;2022-11-24T00:40:12;5.40;99.90
10968;DHT22;5536;49.602;10.980;2022-11-24T00:42:39;5.40;99.90
10968;DHT22;5536;49.602;10.980;2022-11-24T00:45:09;5.50;99.90
10968;DHT22;5536;49.602;10.980;2022-11-24T00:47:40;5.50;99.90
10968;DHT22;5536;49.602;10.980;2022-11-24T00:50:14;5.50;99.90
10968;DHT22;5536;49.602;10.980;2022-11-24T00:52:44;5.50;99.90
10968;DHT22;5536;49.602;10.980;2022-11-24T00:55:15;5.70;99.90
10968;DHT22;5536;49.602;10.980;2022-11-24T00:57:42;5.70;99.90
10968;DHT22;5536;49.602;10.980;2022-11-24T01:00:13;5.90;99.90
10968;DHT22;5536;49.602;10.980;2022-11-24T01:02:42;6.10;99.90
10968;DHT22;5536;49.602;10.980;2022-11-24T01:05:09;6.20;99.90
10968;DHT22;5536;49.602;10.980;2022-11-24T01:07:37;6.30;99.90
10968;DHT22;5536;49.602;10.980;2022-11-24T01:10:07;6.40;99.90
10968;DHT22;5536;49.602;10.980;2022-11-24T01:12:37;6.40;99.90
10968;DHT22;5536;49.602;10.980;2022-11-24T01:15:07;6.40;99.90
10968;DHT22;5536;49.602;10.980;2022-11-24T01:17:37;6.40;99.90
10968;DHT22;5536;49.602;10.980;2022-11-24T01:20:10;6.40;99.90
10968;DHT22;5536;49.602;10.980;2022-11-24T01:22:40;6.40;99.90
10968;DHT22;5536;49.602;10.980;2022-11-24T01:25:08;6.40;99.90
10968;DHT22;5536;49.602;10.980;2022-11-24T01:27:43;6.40;99.90
10968;DHT22;5536;49.602;10.980;2022-11-24T01:30:13;6.50;99.90
10968;DHT22;5536;49.602;10.980;2022-11-24T01:32:43;6.50;99.90
10968;DHT22;5536;49.602;10.980;2022-11-24T01:35:15;6.50;99.90
10968;DHT22;5536;49.602;10.980;2022-11-24T01:37:54;6.40;99.90
10968;DHT22;5536;49.602;10.980;2022-11-24T01:40:23;6.40;99.90
10968;DHT22;5536;49.602;10.980;2022-11-24T01:42:52;6.30;99.90
10968;DHT22;5536;49.602;10.980;2022-11-24T01:45:33;6.40;99.90
10968;DHT22;5536;49.602;10.980;2022-11-24T01:48:04;6.40;99.90
10968;DHT22;5536;49.602;10.980;2022-11-24T01:50:38;6.40;99.90
10968;DHT22;5536;49.602;10.980;2022-11-24T01:53:09;6.40;99.90
10968;DHT22;5536;49.602;10.980;2022-11-24T01:55:40;6.50;99.90
10968;DHT22;5536;49.602;10.980;2022-11-24T01:58:11;6.50;99.90
10968;DHT22;5536;49.602;10.980;2022-11-24T02:00:43;6.40;99.90
10968;DHT22;5536;49.602;10.980;2022-11-24T02:03:19;6.40;99.90
10968;DHT22;5536;49.602;10.980;2022-11-24T02:05:55;6.30;99.90
10968;DHT22;5536;49.602;10.980;2022-11-24T02:08:37;6.30;99.90
10968;DHT22;5536;49.602;10.980;2022-11-24T02:11:08;6.30;99.90
10968;DHT22;5536;49.602;10.980;2022-11-24T02:13:37;6.30;99.90
10968;DHT22;5536;49.602;10.980;2022-11-24T02:16:10;6.30;99.90
10968;DHT22;5536;49.602;10.980;2022-11-24T02:18:41;6.30;99.90
10968;DHT22;5536;49.602;10.980;2022-11-24T02:21:15;6.30;99.90
10968;DHT22;5536;49.602;10.980;2022-11-24T02:23:48;6.30;99.90
10968;DHT22;5536;49.602;10.980;2022-11-24T02:26:45;6.30;99.90
10968;DHT22;5536;49.602;10.980;2022-11-24T02:29:23;6.20;99.90
10968;DHT22;5536;49.602;10.980;2022-11-24T02:31:56;6.30;99.90
10968;DHT22;5536;49.602;10.980;2022-11-24T02:34:28;6.20;99.90
10968;DHT22;5536;49.602;10.980;2022-11-24T02:36:57;6.20;99.90
10968;DHT22;5536;49.602;10.980;2022-11-24T02:39:24;6.20;99.90
10968;DHT22;5536;49.602;10.980;2022-11-24T02:41:59;6.30;99.90
10968;DHT22;5536;49.602;10.980;2022-11-24T02:44:38;6.30;99.90
10968;DHT22;5536;49.602;10.980;2022-11-24T02:47:15;6.40;99.90
10968;DHT22;5536;49.602;10.980;2022-11-24T02:49:46;6.30;99.90
10968;DHT22;5536;49.602;10.980;2022-11-24T02:52:19;6.40;99.90
10968;DHT22;5536;49.602;10.980;2022-11-24T02:54:52;6.40;99.90
10968;DHT22;5536;49.602;10.980;2022-11-24T02:57:35;6.30;99.90
10968;DHT22;5536;49.602;10.980;2022-11-24T03:00:12;6.30;99.90
10968;DHT22;5536;49.602;10.980;2022-11-24T03:02:47;6.30;99.90
10968;DHT22;5536;49.602;10.980;2022-11-24T03:05:14;6.40;99.90
10968;DHT22;5536;49.602;10.980;2022-11-24T03:07:48;6.50;99.90
10968;DHT22;5536;49.602;10.980;2022-11-24T03:10:26;6.60;99.90
10968;DHT22;5536;49.602;10.980;2022-11-24T03:12:57;6.50;99.90
10968;DHT22;5536;49.602;10.980;2022-11-24T03:15:31;6.60;99.90
10968;DHT22;5536;49.602;10.980;2022-11-24T03:18:00;6.50;99.90
10968;DHT22;5536;49.602;10.980;2022-11-24T03:20:33;6.60;99.90
10968;DHT22;5536;49.602;10.980;2022-11-24T03:23:02;6.60;99.90
10968;DHT22;5536;49.602;10.980;2022-11-24T03:25:33;6.60;99.90
10968;DHT22;5536;49.602;10.980;2022-11-24T03:28:04;6.60;99.90
10968;DHT22;5536;49.602;10.980;2022-11-24T03:30:35;6.60;99.90
10968;DHT22;5536;49.602;10.980;2022-11-24T03:33:03;6.60;99.90
10968;DHT22;5536;49.602;10.980;2022-11-24T03:35:34;6.60;99.90
10968;DHT22;5536;49.602;10.980;2022-11-24T03:38:01;6.60;99.90
10968;DHT22;5536;49.602;10.980;2022-11-24T03:40:31;6.60;99.90
10968;DHT22;5536;49.602;10.980;2022-11-24T03:43:04;6.60;99.90
10968;DHT22;5536;49.602;10.980;2022-11-24T03:45:33;6.60;99.90
10968;DHT22;5536;49.602;10.980;2022-11-24T03:48:02;6.60;99.90
10968;DHT22;5536;49.602;10.980;2022-11-24T03:50:33;6.60;99.90
10968;DHT22;5536;49.602;10.980;2022-11-24T03:53:01;6.60;99.90
10968;DHT22;5536;49.602;10.980;2022-11-24T03:55:31;6.50;99.90
10968;DHT22;5536;49.602;10.980;2022-11-24T03:58:01;6.60;99.90
10968;DHT22;5536;49.602;10.980;2022-11-24T04:00:33;6.50;99.90
10968;DHT22;5536;49.602;10.980;2022-11-24T04:03:04;6.50;99.90
10968;DHT22;5536;49.602;10.980;2022-11-24T04:05:31;6.50;99.90
10968;DHT22;5536;49.602;10.980;2022-11-24T04:08:02;6.50;99.90
10968;DHT22;5536;49.602;10.980;2022-11-24T04:10:36;6.50;99.90
10968;DHT22;5536;49.602;10.980;2022-11-24T04:13:12;6.50;99.90
10968;DHT22;5536;49.602;10.980;2022-11-24T04:15:45;6.50;99.90
10968;DHT22;5536;49.602;10.980;2022-11-24T04:18:16;6.50;99.90
10968;DHT22;5536;49.602;10.980;2022-11-24T04:20:43;6.50;99.90
10968;DHT22;5536;49.602;10.980;2022-11-24T04:23:21;6.50;99.90
10968;DHT22;5536;49.602;10.980;2022-11-24T04:25:48;6.50;99.90
10968;DHT22;5536;49.602;10.980;2022-11-24T04:28:18;6.60;99.90
10968;DHT22;5536;49.602;10.980;2022-11-24T04:30:49;6.60;99.90
10968;DHT22;5536;49.602;10.980;2022-11-24T04:33:18;6.60;99.90
10968;DHT22;5536;49.602;10.980;2022-11-24T04:35:46;6.60;99.90
10968;DHT22;5536;49.602;10.980;2022-11-24T04:38:13;6.70;99.90
10968;DHT22;5536;49.602;10.980;2022-11-24T04:40:51;6.80;99.90
10968;DHT22;5536;49.602;10.980;2022-11-24T04:43:18;6.90;99.90
10968;DHT22;5536;49.602;10.980;2022-11-24T04:45:48;7.00;99.90
10968;DHT22;5536;49.602;10.980;2022-11-24T04:48:15;7.00;99.90
10968;DHT22;5536;49.602;10.980;2022-11-24T04:50:45;7.10;99.90
10968;DHT22;5536;49.602;10.980;2022-11-24T04:53:13;7.20;99.90
10968;DHT22;5536;49.602;10.980;2022-11-24T04:55:40;7.20;99.90
10968;DHT22;5536;49.602;10.980;2022-11-24T04:58:09;7.20;99.90
10968;DHT22;5536;49.602;10.980;2022-11-24T05:00:37;7.20;99.90
10968;DHT22;5536;49.602;10.980;2022-11-24T05:03:06;7.10;99.90
10968;DHT22;5536;49.602;10.980;2022-11-24T05:05:34;7.10;99.90
10968;DHT22;5536;49.602;10.980;2022-11-24T05:08:01;7.20;99.90
10968;DHT22;5536;49.602;10.980;2022-11-24T05:10:28;7.30;99.90
10968;DHT22;5536;49.602;10.980;2022-11-24T05:13:09;7.30;99.90
10968;DHT22;5536;49.602;10.980;2022-11-24T05:15:37;7.40;99.90
10968;DHT22;5536;49.602;10.980;2022-11-24T05:18:09;7.40;99.90
10968;DHT22;5536;49.602;10.980;2022-11-24T05:20:39;7.40;99.90
10968;DHT22;5536;49.602;10.980;2022-11-24T05:23:10;7.50;99.90
10968;DHT22;5536;49.602;10.980;2022-11-24T05:25:39;7.60;99.90
10968;DHT22;5536;49.602;10.980;2022-11-24T05:28:10;7.60;99.90
10968;DHT22;5536;49.602;10.980;2022-11-24T05:30:39;7.60;99.90
10968;DHT22;5536;49.602;10.980;2022-11-24T05:33:17;7.70;99.90
10968;DHT22;5536;49.602;10.980;2022-11-24T05:35:52;7.70;99.90
10968;DHT22;5536;49.602;10.980;2022-11-24T05:38:24;7.70;99.90
10968;DHT22;5536;49.602;10.980;2022-11-24T05:40:59;7.70;99.90
10968;DHT22;5536;49.602;10.980;2022-11-24T05:43:34;7.50;99.90
10968;DHT22;5536;49.602;10.980;2022-11-24T05:46:06;7.50;99.90
10968;DHT22;5536;49.602;10.980;2022-11-24T05:48:38;7.50;99.90
10968;DHT22;5536;49.602;10.980;2022-11-24T05:51:09;7.50;99.90
10968;DHT22;5536;49.602;10.980;2022-11-24T05:53:37;7.40;99.90
10968;DHT22;5536;49.602;10.980;2022-11-24T05:56:09;7.40;99.90
10968;DHT22;5536;49.602;10.980;2022-11-24T05:58:39;7.20;99.90
10968;DHT22;5536;49.602;10.980;2022-11-24T06:01:07;7.10;99.90
10968;DHT22;5536;49.602;10.980;2022-11-24T06:03:35;7.10;99.90
10968;DHT22;5536;49.602;10.980;2022-11-24T06:06:05;7.10;99.90
10968;DHT22;5536;49.602;10.980;2022-11-24T06:08:35;7.10;99.90
10968;DHT22;5536;49.602;10.980;2022-11-24T06:11:10;7.10;99.90
10968;DHT22;5536;49.602;10.980;2022-11-24T06:13:51;7.10;99.90
10968;DHT22;5536;49.602;10.980;2022-11-24T06:16:19;7.10;99.90
10968;DHT22;5536;49.602;10.980;2022-11-24T06:18:49;7.10;99.90
10968;DHT22;5536;49.602;10.980;2022-11-24T06:21:39;7.10;99.90
10968;DHT22;5536;49.602;10.980;2022-11-24T06:24:10;7.10;99.90
10968;DHT22;5536;49.602;10.980;2022-11-24T06:26:39;7.30;99.90
10968;DHT22;5536;49.602;10.980;2022-11-24T06:29:07;7.30;99.90
10968;DHT22;5536;49.602;10.980;2022-11-24T06:31:39;7.30;99.90
10968;DHT22;5536;49.602;10.980;2022-11-24T06:34:06;7.30;99.90
10968;DHT22;5536;49.602;10.980;2022-11-24T06:36:40;7.20;99.90
10968;DHT22;5536;49.602;10.980;2022-11-24T06:39:09;7.20;99.90
10968;DHT22;5536;49.602;10.980;2022-11-24T06:41:39;7.20;99.90
10968;DHT22;5536;49.602;10.980;2022-11-24T06:44:07;7.10;99.90
10968;DHT22;5536;49.602;10.980;2022-11-24T06:46:34;7.00;99.90
10968;DHT22;5536;49.602;10.980;2022-11-24T06:49:04;6.90;99.90
10968;DHT22;5536;49.602;10.980;2022-11-24T06:51:32;6.80;99.90
10968;DHT22;5536;49.602;10.980;2022-11-24T06:54:00;6.80;99.90
10968;DHT22;5536;49.602;10.980;2022-11-24T06:56:28;6.80;99.90
10968;DHT22;5536;49.602;10.980;2022-11-24T06:58:55;6.80;99.90
10968;DHT22;5536;49.602;10.980;2022-11-24T07:01:23;6.80;99.90
10968;DHT22;5536;49.602;10.980;2022-11-24T07:03:51;7.10;99.90
10968;DHT22;5536;49.602;10.980;2022-11-24T07:06:20;7.10;99.90
10968;DHT22;5536;49.602;10.980;2022-11-24T07:08:48;7.20;99.90
10968;DHT22;5536;49.602;10.980;2022-11-24T07:11:18;7.20;99.90
10968;DHT22;5536;49.602;10.980;2022-11-24T07:13:46;7.10;99.90
10968;DHT22;5536;49.602;10.980;2022-11-24T07:16:15;7.00;99.90
10968;DHT22;5536;49.602;10.980;2022-11-24T07:18:43;7.00;99.90
10968;DHT22;5536;49.602;10.980;2022-11-24T07:21:10;6.90;99.90
10968;DHT22;5536;49.602;10.980;2022-11-24T07:23:37;6.90;99.90
10968;DHT22;5536;49.602;10.980;2022-11-24T07:26:05;6.80;99.90
10968;DHT22;5536;49.602;10.980;2022-11-24T07:28:35;6.80;99.90
10968;DHT22;5536;49.602;10.980;2022-11-24T07:31:05;6.70;99.90
10968;DHT22;5536;49.602;10.980;2022-11-24T07:33:32;6.70;99.90
10968;DHT22;5536;49.602;10.980;2022-11-24T07:36:00;6.70;99.90
10968;DHT22;5536;49.602;10.980;2022-11-24T07:38:28;6.70;99.90
10968;DHT22;5536;49.602;10.980;2022-11-24T07:40:59;6.70;99.90
10968;DHT22;5536;49.602;10.980;2022-11-24T07:43:27;6.70;99.90
10968;DHT22;5536;49.602;10.980;2022-11-24T07:46:00;6.70;99.90
10968;DHT22;5536;49.602;10.980;2022-11-24T07:48:27;6.70;99.90
10968;DHT22;5536;49.602;10.980;2022-11-24T07:50:58;6.90;99.90
10968;DHT22;5536;49.602;10.980;2022-11-24T07:53:25;7.00;99.90
10968;DHT22;5536;49.602;10.980;2022-11-24T07:55:52;7.10;99.90
10968;DHT22;5536;49.602;10.980;2022-11-24T07:58:20;7.20;99.90
10968;DHT22;5536;49.602;10.980;2022-11-24T08:00:47;7.30;99.90
10968;DHT22;5536;49.602;10.980;2022-11-24T08:03:16;7.50;99.90
10968;DHT22;5536;49.602;10.980;2022-11-24T08:05:43;7.50;99.90
10968;DHT22;5536;49.602;10.980;2022-11-24T08:08:10;7.60;99.90
10968;DHT22;5536;49.602;10.980;2022-11-24T08:10:36;7.60;99.90
10968;DHT22;5536;49.602;10.980;2022-11-24T08:13:03;7.60;99.90
10968;DHT22;5536;49.602;10.980;2022-11-24T08:15:30;7.60;99.90
10968;DHT22;5536;49.602;10.980;2022-11-24T08:18:00;7.60;99.90
10968;DHT22;5536;49.602;10.980;2022-11-24T08:20:28;7.60;99.90
10968;DHT22;5536;49.602;10.980;2022-11-24T08:22:56;7.70;99.90
10968;DHT22;5536;49.602;10.980;2022-11-24T08:25:24;7.90;99.90
10968;DHT22;5536;49.602;10.980;2022-11-24T08:27:56;8.00;99.90
10968;DHT22;5536;49.602;10.980;2022-11-24T08:30:23;8.30;99.90
10968;DHT22;5536;49.602;10.980;2022-11-24T08:32:50;8.50;99.90
10968;DHT22;5536;49.602;10.980;2022-11-24T08:35:17;8.60;99.90
10968;DHT22;5536;49.602;10.980;2022-11-24T08:37:46;8.60;99.90
10968;DHT22;5536;49.602;10.980;2022-11-24T08:40:13;8.70;99.90
10968;DHT22;5536;49.602;10.980;2022-11-24T08:42:40;8.80;99.90
10968;DHT22;5536;49.602;10.980;2022-11-24T08:45:09;8.90;99.90
10968;DHT22;5536;49.602;10.980;2022-11-24T08:47:36;8.90;99.90
10968;DHT22;5536;49.602;10.980;2022-11-24T08:50:04;9.00;99.90
10968;DHT22;5536;49.602;10.980;2022-11-24T08:52:31;9.00;99.90
10968;DHT22;5536;49.602;10.980;2022-11-24T08:55:00;9.10;99.90
10968;DHT22;5536;49.602;10.980;2022-11-24T08:57:27;9.10;99.90
10968;DHT22;5536;49.602;10.980;2022-11-24T08:59:54;9.10;99.90
10968;DHT22;5536;49.602;10.980;2022-11-24T09:02:21;9.20;99.90
10968;DHT22;5536;49.602;10.980;2022-11-24T09:04:48;9.20;99.90
10968;DHT22;5536;49.602;10.980;2022-11-24T09:07:15;9.10;99.90
10968;DHT22;5536;49.602;10.980;2022-11-24T09:09:42;9.10;99.90
10968;DHT22;5536;49.602;10.980;2022-11-24T09:12:11;9.10;99.90
10968;DHT22;5536;49.602;10.980;2022-11-24T09:14:38;9.10;99.90
10968;DHT22;5536;49.602;10.980;2022-11-24T09:17:05;9.10;99.90
10968;DHT22;5536;49.602;10.980;2022-11-24T09:19:32;9.10;99.90
10968;DHT22;5536;49.602;10.980;2022-11-24T09:21:59;9.10;99.90
10968;DHT22;5536;49.602;10.980;2022-11-24T09:24:26;9.00;99.90
10968;DHT22;5536;49.602;10.980;2022-11-24T09:26:53;9.00;99.90
10968;DHT22;5536;49.602;10.980;2022-11-24T09:29:23;8.90;99.90
10968;DHT22;5536;49.602;10.980;2022-11-24T09:31:50;9.00;99.90
10968;DHT22;5536;49.602;10.980;2022-11-24T09:34:17;8.90;99.90
10968;DHT22;5536;49.602;10.980;2022-11-24T09:36:44;8.80;99.90
10968;DHT22;5536;49.602;10.980;2022-11-24T09:39:11;8.80;99.90
10968;DHT22;5536;49.602;10.980;2022-11-24T09:41:46;8.80;99.90
10968;DHT22;5536;49.602;10.980;2022-11-24T09:44:45;8.70;99.90
10968;DHT22;5536;49.602;10.980;2022-11-24T09:47:21;8.70;99.90
10968;DHT22;5536;49.602;10.980;2022-11-24T09:49:53;8.80;99.90
10968;DHT22;5536;49.602;10.980;2022-11-24T09:52:35;8.80;99.90
10968;DHT22;5536;49.602;10.980;2022-11-24T09:55:10;8.80;99.90
10968;DHT22;5536;49.602;10.980;2022-11-24T09:57:42;8.90;99.90
10968;DHT22;5536;49.602;10.980;2022-11-24T10:00:12;8.90;99.90
10968;DHT22;5536;49.602;10.980;2022-11-24T10:02:40;8.90;99.90
10968;DHT22;5536;49.602;10.980;2022-11-24T10:05:08;8.90;99.90
10968;DHT22;5536;49.602;10.980;2022-11-24T10:07:42;8.90;99.90
10968;DHT22;5536;49.602;10.980;2022-11-24T10:10:16;8.80;99.90
10968;DHT22;5536;49.602;10.980;2022-11-24T10:12:53;8.80;99.90
10968;DHT22;5536;49.602;10.980;2022-11-24T10:15:33;8.80;99.90
10968;DHT22;5536;49.602;10.980;2022-11-24T10:21:20;8.60;99.90
10968;DHT22;5536;49.602;10.980;2022-11-24T10:24:07;8.40;99.90
10968;DHT22;5536;49.602;10.980;2022-11-24T10:26:39;8.40;99.90
10968;DHT22;5536;49.602;10.980;2022-11-24T10:29:19;8.40;99.90
10968;DHT22;5536;49.602;10.980;2022-11-24T10:31:52;8.30;99.90
10968;DHT22;5536;49.602;10.980;2022-11-24T10:34:24;8.30;99.90
10968;DHT22;5536;49.602;10.980;2022-11-24T10:36:59;8.30;99.90
10968;DHT22;5536;49.602;10.980;2022-11-24T10:39:31;8.30;99.90
10968;DHT22;5536;49.602;10.980;2022-11-24T10:42:06;8.30;99.90
10968;DHT22;5536;49.602;10.980;2022-11-24T10:44:38;8.30;99.90
10968;DHT22;5536;49.602;10.980;2022-11-24T10:47:16;8.20;99.90
10968;DHT22;5536;49.602;10.980;2022-11-24T10:49:47;8.20;99.90
10968;DHT22;5536;49.602;10.980;2022-11-24T10:52:18;8.20;99.90
10968;DHT22;5536;49.602;10.980;2022-11-24T10:54:56;8.30;99.90
10968;DHT22;5536;49.602;10.980;2022-11-24T10:57:29;8.30;99.90
10968;DHT22;5536;49.602;10.980;2022-11-24T10:59:57;8.30;99.90
10968;DHT22;5536;49.602;10.980;2022-11-24T11:02:32;8.30;99.90
10968;DHT22;5536;49.602;10.980;2022-11-24T11:05:26;8.40;99.90
10968;DHT22;5536;49.602;10.980;2022-11-24T11:08:10;8.40;99.90
10968;DHT22;5536;49.602;10.980;2022-11-24T11:10:42;8.40;99.90
10968;DHT22;5536;49.602;10.980;2022-11-24T11:13:21;8.50;99.90
10968;DHT22;5536;49.602;10.980;2022-11-24T11:15:48;8.50;99.90
10968;DHT22;5536;49.602;10.980;2022-11-24T11:18:18;8.50;99.90
10968;DHT22;5536;49.602;10.980;2022-11-24T11:20:51;8.50;99.90
10968;DHT22;5536;49.602;10.980;2022-11-24T11:23:23;8.70;99.90
10968;DHT22;5536;49.602;10.980;2022-11-24T11:26:18;8.60;99.90
10968;DHT22;5536;49.602;10.980;2022-11-24T11:29:00;8.70;99.90
10968;DHT22;5536;49.602;10.980;2022-11-24T11:31:28;8.80;99.90
10968;DHT22;5536;49.602;10.980;2022-11-24T11:34:12;8.80;99.90
10968;DHT22;5536;49.602;10.980;2022-11-24T11:36:41;8.80;99.90
10968;DHT22;5536;49.602;10.980;2022-11-24T11:39:21;8.80;99.90
10968;DHT22;5536;49.602;10.980;2022-11-24T11:41:52;8.80;99.90
10968;DHT22;5536;49.602;10.980;2022-11-24T11:44:35;9.00;99.90
10968;DHT22;5536;49.602;10.980;2022-11-24T11:47:14;9.10;99.90
10968;DHT22;5536;49.602;10.980;2022-11-24T11:49:47;9.20;99.90
10968;DHT22;5536;49.602;10.980;2022-11-24T11:55:42;9.20;99.90
10968;DHT22;5536;49.602;10.980;2022-11-24T12:01:14;9.10;99.90
10968;DHT22;5536;49.602;10.980;2022-11-24T12:03:55;9.10;99.90
10968;DHT22;5536;49.602;10.980;2022-11-24T12:06:40;9.20;99.90
10968;DHT22;5536;49.602;10.980;2022-11-24T12:09:20;9.30;99.90
10968;DHT22;5536;49.602;10.980;2022-11-24T12:12:02;9.40;99.90
10968;DHT22;5536;49.602;10.980;2022-11-24T12:14:37;9.60;99.90
10968;DHT22;5536;49.602;10.980;2022-11-24T12:17:12;9.70;99.90
10968;DHT22;5536;49.602;10.980;2022-11-24T12:19:52;9.90;99.90
10968;DHT22;5536;49.602;10.980;2022-11-24T12:22:35;9.80;99.90
10968;DHT22;5536;49.602;10.980;2022-11-24T12:25:18;10.00;99.90
10968;DHT22;5536;49.602;10.980;2022-11-24T12:27:52;10.40;99.90
10968;DHT22;5536;49.602;10.980;2022-11-24T12:30:34;11.10;99.90
10968;DHT22;5536;49.602;10.980;2022-11-24T12:33:14;11.80;99.90
10968;DHT22;5536;49.602;10.980;2022-11-24T12:35:44;12.20;99.90
10968;DHT22;5536;49.602;10.980;2022-11-24T12:38:28;12.20;99.90
10968;DHT22;5536;49.602;10.980;2022-11-24T12:41:19;11.90;99.90
10968;DHT22;5536;49.602;10.980;2022-11-24T12:43:49;11.90;99.90
10968;DHT22;5536;49.602;10.980;2022-11-24T12:46:21;11.80;99.90
10968;DHT22;5536;49.602;10.980;2022-11-24T12:48:59;11.20;99.90
10968;DHT22;5536;49.602;10.980;2022-11-24T12:51:30;10.90;99.90
10968;DHT22;5536;49.602;10.980;2022-11-24T12:54:01;10.60;99.90
10968;DHT22;5536;49.602;10.980;2022-11-24T12:56:36;10.30;99.90
10968;DHT22;5536;49.602;10.980;2022-11-24T12:59:17;10.00;99.90
10968;DHT22;5536;49.602;10.980;2022-11-24T13:01:50;9.90;99.90
10968;DHT22;5536;49.602;10.980;2022-11-24T13:04:29;9.90;99.90
10968;DHT22;5536;49.602;10.980;2022-11-24T13:07:02;9.90;99.90
10968;DHT22;5536;49.602;10.980;2022-11-24T13:09:31;9.80;99.90
10968;DHT22;5536;49.602;10.980;2022-11-24T13:12:07;9.80;99.90
10968;DHT22;5536;49.602;10.980;2022-11-24T13:14:38;9.80;99.90
10968;DHT22;5536;49.602;10.980;2022-11-24T13:17:23;10.10;99.90
10968;DHT22;5536;49.602;10.980;2022-11-24T13:20:13;10.30;99.90
10968;DHT22;5536;49.602;10.980;2022-11-24T13:22:45;10.50;99.90
10968;DHT22;5536;49.602;10.980;2022-11-24T13:25:17;10.40;99.90
10968;DHT22;5536;49.602;10.980;2022-11-24T13:27:47;10.20;99.90
10968;DHT22;5536;49.602;10.980;2022-11-24T13:30:53;10.10;99.90
10968;DHT22;5536;49.602;10.980;2022-11-24T13:33:37;10.00;99.90
10968;DHT22;5536;49.602;10.980;2022-11-24T13:39:19;9.80;99.90
10968;DHT22;5536;49.602;10.980;2022-11-24T13:42:09;9.80;99.90
10968;DHT22;5536;49.602;10.980;2022-11-24T13:44:49;9.70;99.90
10968;DHT22;5536;49.602;10.980;2022-11-24T13:47:36;9.70;99.90
10968;DHT22;5536;49.602;10.980;2022-11-24T13:50:06;9.70;99.90
10968;DHT22;5536;49.602;10.980;2022-11-24T13:52:42;9.70;99.90
10968;DHT22;5536;49.602;10.980;2022-11-24T13:55:28;9.70;99.90
10968;DHT22;5536;49.602;10.980;2022-11-24T13:58:01;9.60;99.90
10968;DHT22;5536;49.602;10.980;2022-11-24T14:00:33;9.50;99.90
10968;DHT22;5536;49.602;10.980;2022-11-24T14:03:03;9.40;99.90
10968;DHT22;5536;49.602;10.980;2022-11-24T14:05:36;9.30;99.90
10968;DHT22;5536;49.602;10.980;2022-11-24T14:08:06;9.20;99.90
10968;DHT22;5536;49.602;10.980;2022-11-24T14:10:36;9.20;99.90
10968;DHT22;5536;49.602;10.980;2022-11-24T14:13:24;9.20;99.90
10968;DHT22;5536;49.602;10.980;2022-11-24T14:15:59;9.10;99.90
10968;DHT22;5536;49.602;10.980;2022-11-24T14:18:27;9.20;99.90
10968;DHT22;5536;49.602;10.980;2022-11-24T14:20:56;9.20;99.90
10968;DHT22;5536;49.602;10.980;2022-11-24T14:23:24;9.20;99.90
10968;DHT22;5536;49.602;10.980;2022-11-24T14:25:52;9.20;99.90
10968;DHT22;5536;49.602;10.980;2022-11-24T14:28:23;9.10;99.90
10968;DHT22;5536;49.602;10.980;2022-11-24T14:31:05;9.10;99.90
10968;DHT22;5536;49.602;10.980;2022-11-24T14:33:33;9.00;99.90
10968;DHT22;5536;49.602;10.980;2022-11-24T14:36:00;8.90;99.90
10968;DHT22;5536;49.602;10.980;2022-11-24T14:38:28;8.90;99.90
10968;DHT22;5536;49.602;10.980;2022-11-24T14:40:55;8.90;99.90
10968;DHT22;5536;49.602;10.980;2022-11-24T14:43:28;8.90;99.90
10968;DHT22;5536;49.602;10.980;2022-11-24T14:45:59;8.90;99.90
10968;DHT22;5536;49.602;10.980;2022-11-24T14:48:27;8.90;99.90
10968;DHT22;5536;49.602;10.980;2022-11-24T14:51:05;8.90;99.90
10968;DHT22;5536;49.602;10.980;2022-11-24T14:53:33;8.90;99.90
10968;DHT22;5536;49.602;10.980;2022-11-24T14:56:22;8.90;99.90
10968;DHT22;5536;49.602;10.980;2022-11-24T14:58:51;8.90;99.90
10968;DHT22;5536;49.602;10.980;2022-11-24T15:01:22;9.00;99.90
10968;DHT22;5536;49.602;10.980;2022-11-24T15:04:14;9.00;99.90
10968;DHT22;5536;49.602;10.980;2022-11-24T15:06:43;9.00;99.90
10968;DHT22;5536;49.602;10.980;2022-11-24T15:09:24;8.90;99.90
10968;DHT22;5536;49.602;10.980;2022-11-24T15:11:52;8.80;99.90
10968;DHT22;5536;49.602;10.980;2022-11-24T15:14:42;8.80;99.90
10968;DHT22;5536;49.602;10.980;2022-11-24T15:17:18;8.60;99.90
10968;DHT22;5536;49.602;10.980;2022-11-24T15:19:49;8.60;99.90
10968;DHT22;5536;49.602;10.980;2022-11-24T15:22:37;8.60;99.90
10968;DHT22;5536;49.602;10.980;2022-11-24T15:25:29;8.50;99.90
10968;DHT22;5536;49.602;10.980;2022-11-24T15:27:56;8.50;99.90
10968;DHT22;5536;49.602;10.980;2022-11-24T15:30:24;8.50;99.90
10968;DHT22;5536;49.602;10.980;2022-11-24T15:32:52;8.40;99.90
10968;DHT22;5536;49.602;10.980;2022-11-24T15:35:20;8.20;99.90
10968;DHT22;5536;49.602;10.980;2022-11-24T15:37:48;8.20;99.90
10968;DHT22;5536;49.602;10.980;2022-11-24T15:40:15;8.20;99.90
10968;DHT22;5536;49.602;10.980;2022-11-24T15:42:48;8.10;99.90
10968;DHT22;5536;49.602;10.980;2022-11-24T15:45:16;8.00;99.90
10968;DHT22;5536;49.602;10.980;2022-11-24T15:47:44;8.00;99.90
10968;DHT22;5536;49.602;10.980;2022-11-24T15:50:12;8.20;99.90
10968;DHT22;5536;49.602;10.980;2022-11-24T15:52:40;8.10;99.90
10968;DHT22;5536;49.602;10.980;2022-11-24T15:55:15;8.10;99.90
10968;DHT22;5536;49.602;10.980;2022-11-24T15:57:43;8.00;99.90
10968;DHT22;5536;49.602;10.980;2022-11-24T16:00:14;7.80;99.90
10968;DHT22;5536;49.602;10.980;2022-11-24T16:02:41;7.70;99.90
10968;DHT22;5536;49.602;10.980;2022-11-24T16:05:10;7.60;99.90
10968;DHT22;5536;49.602;10.980;2022-11-24T16:07:38;7.50;99.90
10968;DHT22;5536;49.602;10.980;2022-11-24T16:10:06;7.40;99.90
10968;DHT22;5536;49.602;10.980;2022-11-24T16:12:33;7.40;99.90
10968;DHT22;5536;49.602;10.980;2022-11-24T16:15:00;7.30;99.90
10968;DHT22;5536;49.602;10.980;2022-11-24T16:17:27;7.30;99.90
10968;DHT22;5536;49.602;10.980;2022-11-24T16:19:54;7.30;99.90
10968;DHT22;5536;49.602;10.980;2022-11-24T16:22:22;7.30;99.90
10968;DHT22;5536;49.602;10.980;2022-11-24T16:24:49;7.30;99.90
10968;DHT22;5536;49.602;10.980;2022-11-24T16:27:16;7.20;99.90